Aviation Digital Data Service (ADDS)

Output produced by METARs form (1053 UTC 24 April 2018)
found at http://aviationweather.gov/adds/metars/
 
KAND 240919Z 2409/2506 06010KT 6SM -SHRA BR OVC004 
     TEMPO 2410/2414 3SM -SHRA BR 
     FM241500 10005KT 6SM BR OVC007 
     FM241800 25008KT P6SM VCSH OVC015 
     FM250000 29009KT P6SM BKN035